PWSweather.com
Personal Weather Stations
Station Observations
LENIOP
Colle Di Val D ElsaIT 53034

Colle Di Val D ElsaIT 53034

Lat: 43.26, Lon: 11.0006

Elevation: 244

Station Type: PCE-FWS 20

http://iz5ilj.altervista.org

Latest ConditionsUpdated 8:30:03 PM GMT+01:01 Monday, Feb 19, 2018
Currently Today's Max Today's Min Today's Average
Temperature 36.9°F2.7°C 45.5°F7.5°C 36.9°F2.7°C 41.0°F5.0°C
Dew Point 28.0°F-2.2°C 36.2°F2.3°C 28.0°F-2.2°C 33.1°F0.6°C
Winds 7.5 mph NW12.1 kmh NW 14.0 mph NNW22.5 kmh NNW - 8.5 mph 13.7 kmh
Wind Gusts 9.2 mph14.8 kmh 16.8 mph27.0 kmh - -
Humidity 70% 89% 57% 74%
Pressure 30.12 in1020.0 mb 30.22 in1023.4 mb 30.10 in1019.3 mb -
Precipitation - 0.01 in0.3 mm - -
Hour Temp Dew Point Humidity Winds Wind Gusts Pressure Precip Precip Rate Daily Precip Total
08:30 PM 36.9°F2.7°C 28.0°F-2.2°C 70% 7.5 mph NW12.1 kmh NW 9.2 mph14.8 kmh 30.12 in1020.0 mb 0.00 in0.0 mm 0.00 in0.0 mm 0.01 in0.3 mm
08:15 PM 37.2°F2.9°C 28.7°F-1.8°C 71% 6.7 mph NW10.8 kmh NW 10.7 mph17.2 kmh 30.12 in1020.0 mb 0.00 in0.0 mm 0.00 in0.0 mm 0.01 in0.3 mm
08:00 PM 37.4°F3.0°C 28.9°F-1.7°C 71% 6.4 mph NW10.3 kmh NW 7.6 mph12.2 kmh 30.11 in1019.6 mb 0.00 in0.0 mm 0.00 in0.0 mm 0.01 in0.3 mm
07:45 PM 37.9°F3.3°C 29.0°F-1.7°C 70% 7.1 mph NW11.4 kmh NW 9.8 mph15.8 kmh 30.11 in1019.6 mb 0.00 in0.0 mm 0.00 in0.0 mm 0.01 in0.3 mm
07:30 PM 38.3°F3.5°C 29.4°F-1.4°C 70% 7.0 mph NW11.3 kmh NW 8.3 mph13.4 kmh 30.11 in1019.6 mb 0.00 in0.0 mm 0.00 in0.0 mm 0.01 in0.3 mm
07:29 PM 38.3°F3.5°C 29.4°F-1.4°C 70% 7.5 mph NW12.1 kmh NW 8.3 mph13.4 kmh 30.11 in1019.6 mb 0.00 in0.0 mm 0.00 in0.0 mm 0.01 in0.3 mm
07:24 PM 38.5°F3.6°C 29.5°F-1.4°C 70% 6.8 mph NW10.9 kmh NW 8.3 mph13.4 kmh 30.11 in1019.6 mb 0.00 in0.0 mm 0.00 in0.0 mm 0.01 in0.3 mm
07:19 PM 38.7°F3.7°C 29.0°F-1.7°C 68% 7.3 mph NW11.7 kmh NW 8.3 mph13.4 kmh 30.11 in1019.6 mb 0.00 in0.0 mm 0.00 in0.0 mm 0.01 in0.3 mm
04:52 PM 45.1°F7.3°C 31.7°F-0.2°C 59% 12.1 mph NW19.5 kmh NW 13.0 mph20.9 kmh 30.13 in1020.3 mb 0.00 in0.0 mm 0.00 in0.0 mm 0.01 in0.3 mm
04:50 PM 41.9°F5.5°C 30.6°F-0.8°C 64% 9.3 mph NNW15.0 kmh NNW 9.8 mph15.8 kmh 30.11 in1019.6 mb 0.00 in0.0 mm 0.00 in0.0 mm 0.01 in0.3 mm
04:45 PM 42.1°F5.6°C 30.4°F-0.9°C 63% 9.3 mph NNW15.0 kmh NNW 9.8 mph15.8 kmh 30.11 in1019.6 mb 0.00 in0.0 mm 0.00 in0.0 mm 0.01 in0.3 mm
04:40 PM 42.4°F5.8°C 30.3°F-0.9°C 62% 10.6 mph NNW17.1 kmh NNW 13.6 mph21.9 kmh 30.11 in1019.6 mb 0.00 in0.0 mm 0.00 in0.0 mm 0.01 in0.3 mm
03:00 PM 45.3°F7.4°C 31.4°F-0.3°C 58% 11.8 mph NW19.0 kmh NW 15.9 mph25.6 kmh 30.13 in1020.3 mb 0.00 in0.0 mm 0.00 in0.0 mm 0.01 in0.3 mm
02:45 PM 45.5°F7.5°C 31.6°F-0.2°C 58% 12.3 mph NW19.8 kmh NW 15.2 mph24.5 kmh 30.12 in1020.0 mb 0.00 in0.0 mm 0.00 in0.0 mm 0.01 in0.3 mm
02:30 PM 45.3°F7.4°C 31.4°F-0.3°C 58% 11.5 mph NW18.5 kmh NW 14.5 mph23.3 kmh 30.13 in1020.3 mb 0.00 in0.0 mm 0.00 in0.0 mm 0.01 in0.3 mm
02:15 PM 45.3°F7.4°C 31.4°F-0.3°C 58% 12.5 mph NNW20.1 kmh NNW 16.8 mph27.0 kmh 30.13 in1020.3 mb 0.00 in0.0 mm 0.00 in0.0 mm 0.01 in0.3 mm
02:00 PM 45.3°F7.4°C 31.0°F-0.6°C 57% 11.3 mph NNW18.2 kmh NNW 15.9 mph25.6 kmh 30.14 in1020.7 mb 0.00 in0.0 mm 0.00 in0.0 mm 0.01 in0.3 mm
01:50 PM 45.1°F7.3°C 31.2°F-0.4°C 58% 9.2 mph NW14.8 kmh NW 11.4 mph18.3 kmh 30.13 in1020.3 mb 0.00 in0.0 mm 0.00 in0.0 mm 0.01 in0.3 mm
01:45 PM 45.1°F7.3°C 31.2°F-0.4°C 58% 9.2 mph NW14.8 kmh NW 11.4 mph18.3 kmh 30.14 in1020.7 mb 0.00 in0.0 mm 0.00 in0.0 mm 0.01 in0.3 mm
01:40 PM 45.1°F7.3°C 31.2°F-0.4°C 58% 10.7 mph NW17.2 kmh NW 13.6 mph21.9 kmh 30.14 in1020.7 mb 0.00 in0.0 mm 0.00 in0.0 mm 0.01 in0.3 mm
01:00 PM 44.4°F6.9°C 31.0°F-0.6°C 59% 10.3 mph NW16.6 kmh NW 11.4 mph18.3 kmh 30.16 in1021.3 mb 0.00 in0.0 mm 0.00 in0.0 mm 0.01 in0.3 mm
12:45 PM 44.6°F7.0°C 31.2°F-0.4°C 59% 11.2 mph NW18.0 kmh NW 15.2 mph24.5 kmh 30.15 in1021.0 mb 0.00 in0.0 mm 0.00 in0.0 mm 0.01 in0.3 mm
12:30 PM 44.4°F6.9°C 31.4°F-0.3°C 60% 9.2 mph NW14.8 kmh NW 13.6 mph21.9 kmh 30.16 in1021.3 mb 0.00 in0.0 mm 0.00 in0.0 mm 0.01 in0.3 mm
12:15 PM 44.2°F6.8°C 30.8°F-0.7°C 59% 10.7 mph N17.2 kmh N 15.9 mph25.6 kmh 30.16 in1021.3 mb 0.00 in0.0 mm 0.00 in0.0 mm 0.01 in0.3 mm
12:00 PM 44.2°F6.8°C 31.2°F-0.4°C 60% 11.5 mph NNW18.5 kmh NNW 15.9 mph25.6 kmh 30.16 in1021.3 mb 0.00 in0.0 mm 0.00 in0.0 mm 0.01 in0.3 mm
11:45 AM 43.7°F6.5°C 31.1°F-0.5°C 61% 13.7 mph N22.0 kmh N 16.8 mph27.0 kmh 30.16 in1021.3 mb 0.00 in0.0 mm 0.00 in0.0 mm 0.01 in0.3 mm
11:30 AM 44.1°F6.7°C 31.1°F-0.5°C 60% 11.5 mph NNW18.5 kmh NNW 15.9 mph25.6 kmh 30.16 in1021.3 mb 0.00 in0.0 mm 0.00 in0.0 mm 0.01 in0.3 mm
11:15 AM 43.9°F6.6°C 31.3°F-0.4°C 61% 12.0 mph NNW19.3 kmh NNW 13.6 mph21.9 kmh 30.16 in1021.3 mb 0.00 in0.0 mm 0.00 in0.0 mm 0.01 in0.3 mm
11:09 AM 41.7°F5.4°C 31.2°F-0.4°C 66% 9.7 mph NW15.6 kmh NW 10.7 mph17.2 kmh 30.17 in1021.7 mb 0.00 in0.0 mm 0.00 in0.0 mm 0.01 in0.3 mm
11:08 AM 39.2°F4.0°C 34.2°F1.2°C 82% 8.4 mph W13.5 kmh W 9.2 mph14.8 kmh 30.16 in1021.3 mb 0.01 in0.3 mm 0.60 in15.2 mm 0.01 in0.3 mm
11:07 AM 40.5°F4.7°C 35.1°F1.7°C 81% 6.4 mph NW10.3 kmh NW 6.9 mph11.1 kmh 30.21 in1023.0 mb 0.00 in0.0 mm 0.00 in0.0 mm 1.02 in25.9 mm
11:06 AM 41.7°F5.4°C 36.0°F2.2°C 80% 9.5 mph NW15.3 kmh NW 12.1 mph19.5 kmh 30.20 in1022.7 mb 0.00 in0.0 mm 0.00 in0.0 mm 0.99 in25.1 mm
11:05 AM 41.9°F5.5°C 36.2°F2.3°C 80% 8.1 mph NW13.0 kmh NW 9.9 mph15.9 kmh 30.20 in1022.7 mb 0.00 in0.0 mm 0.00 in0.0 mm 0.99 in25.1 mm
11:04 AM 43.9°F6.6°C 31.3°F-0.4°C 61% 11.9 mph NNW19.2 kmh NNW 14.5 mph23.3 kmh 30.16 in1021.3 mb 0.00 in0.0 mm 0.00 in0.0 mm 0.01 in0.3 mm
10:59 AM 43.7°F6.5°C 31.1°F-0.5°C 61% 13.5 mph NNW21.7 kmh NNW 14.5 mph23.3 kmh 30.16 in1021.3 mb 0.00 in0.0 mm 0.00 in0.0 mm 0.01 in0.3 mm
10:54 AM 43.9°F6.6°C 30.9°F-0.6°C 60% 13.5 mph NNW21.7 kmh NNW 14.5 mph23.3 kmh 30.16 in1021.3 mb 0.00 in0.0 mm 0.00 in0.0 mm 0.01 in0.3 mm